Chippewa County International Airport
KCIU : rendu visible

Aérodrome :











RETROUVEZ-NOUS SUR...

 
LOGIN :

S'inscrire | Disclaimer

   EN    FR    IT 

 









Légende :    VFR   VFR Marginal   IFR   IFR Intensif   IFR Très Intensif
Visi : 
Plafond : 
>= 8 km
>= 3000ft
5 à 8 km
1000 à 3000 ft
1500m à 5 km
500 à 1000 ft
800 à 1500m
200 à 500 ft
< 800m
< 200 ft
Symboles :   Orages  Brouillard  Fortes neiges  Fortes précipitations  Vent > 20 kt






- Altitude de l'aérodrome : 800 ft
- Code IATA : CIU


KCIU - Chippewa County International

DERNIER METAR :
  • 192356Z AUTO 28011KT 10SM OVC046 M11/M16 A3043 RMK AO2 SNE2259 SLP323 P0000 60000 T11111161 11067 21117 53010 FZRANO

METARs EXPIRÉS :
  • 192256Z AUTO 29011G19KT 9SM -SN SCT044 M10/M14 A3042 RMK AO2 SNE26B45 SLP319 P0000 T11001144 FZRANO
  • 192156Z AUTO 30015G21KT 4SM -SN OVC048 M09/M13 A3040 RMK AO2 SLP312 P0000 T10891128 FZRANO
  • 192131Z AUTO 30015G21KT 1 3/4SM -SN SCT034 OVC050 M09/M13 A3040 RMK AO2 VIS 3/4V5 P0000 FZRANO
  • 192118Z AUTO 30013KT 9SM FEW027 BKN034 OVC044 M09/M13 A3040 RMK AO2 SNE14 P0000 FZRANO
  • 192110Z AUTO 30011KT 1 1/4SM -SN BKN032 OVC043 M09/M13 A3040 RMK AO2 P0000 FZRANO
  • 192103Z AUTO 30018G25KT 3/4SM -SN BKN030 OVC045 M08/M13 A3039 RMK AO2 P0000 FZRANO

TAF N/A



MET'MAP, la Météo Aéronautique d'un coup d'oeil ! - Copyright ORBIFLY Décembre 2007 - Disclaimer

ORBIFLY MET'MAP TEAM :

Programmation & Développement : Alexandra Zaïnal
Sur une idée originale de : Baudouin d'Aumeries
Assistance à la programmation : Marc-Olivier Méhu
Soutien technique & logistique : Manuel Goepfert

Contact : metmap@orbifly.com




SOURCES & CREDITS :

   NOAA       Earth
Advisory